Aérodrome :
LOGIN :

S'inscrire | Disclaimer

   EN    FR    IT 

 










Légende :    VFR   VFR Marginal   IFR   IFR Intensif   IFR Très Intensif
Visi : 
Plafond : 
>= 8 km
>= 3000ft
5 à 8 km
1000 à 3000 ft
1500m à 5 km
500 à 1000 ft
800 à 1500m
200 à 500 ft
< 800m
< 200 ft
Symboles :   Orages  Brouillard  Fortes neiges  Fortes précipitations  Vent > 20 kt
SIGMETs :   Divers  Orages  Givrage  Turbulence  Onde Orograph.  Cendres Volcan.






- Altitude de l'aérodrome : 2776 ft
- Code IATA : VLL


LEVD - Valladolid

DERNIER METAR :
  • 171845Z 13002KT 4800 BR NSC M01/M01 Q1029

METARs EXPIRÉS :
  • 171830Z 07004KT 6000 NSC M01/M01 Q1029
  • 171800Z 00000KT 3500 BR NSC M01/M01 Q1029
  • 171730Z 08001KT 3000 BR NSC M01/M01 Q1029
  • 171700Z VRB01KT 3500 0900 R23/1000U R05/P2000 BCFG VV002 M01/M01 Q1029
  • 171630Z 13003KT 080V160 0450 0150 R23/0250N R05/1500D FZFG VV001 M01/M01 Q1029
  • 171605Z 11003KT 080V150 0500 0200 R23/0275N R05/1800D FZFG BKN001 M01/M01 Q1029

TAF AMD TAF LEVD
Valide du 17 à 17h jusqu'au 18 à 15h UTC


171732Z 1717/1815 VRB04KT 3000 BR NSC TX08/1815Z TNM04/1808Z
PROB40
TEMPO 1718/1811 0200 FZFG VV002
BECMG 1810/1812 9999 NSW



MET'MAP, la Météo Aéronautique d'un coup d'oeil ! - Copyright ORBIFLY Décembre 2007 - Disclaimer

ORBIFLY MET'MAP TEAM :

Programmation & Développement : Alexandra Zaïnal
Sur une idée originale de : Baudouin d'Aumeries
Assistance à la programmation : Marc-Olivier Méhu
Soutien technique & logistique : Manuel Goepfert

Contact : metmap@orbifly.com




SOURCES & CREDITS :

   NOAA